createdAt,value
2023-05-08T00:01:19.533Z,10.50
2023-05-08T00:03:46.276Z,9.85
2023-05-08T00:06:12.894Z,9.27
2023-05-08T00:08:39.540Z,9.30
2023-05-08T00:11:06.079Z,11.38
2023-05-08T00:13:32.508Z,8.73
2023-05-08T00:15:59.094Z,7.35
2023-05-08T00:18:26.451Z,9.43
2023-05-08T00:20:53.024Z,7.78
2023-05-08T00:23:21.932Z,10.20
2023-05-08T00:28:15.114Z,10.15
2023-05-08T00:30:42.616Z,14.63
2023-05-08T00:33:09.535Z,11.27
2023-05-08T00:35:36.328Z,10.32
2023-05-08T00:38:03.151Z,11.55
2023-05-08T00:40:31.074Z,11.38
2023-05-08T00:42:57.498Z,10.45
2023-05-08T00:45:24.465Z,10.20
2023-05-08T00:47:51.275Z,11.02
2023-05-08T00:50:18.149Z,9.75
2023-05-08T00:52:44.712Z,9.70
2023-05-08T00:55:11.233Z,8.85
2023-05-08T00:57:38.626Z,8.90
2023-05-08T01:00:05.872Z,9.15
2023-05-08T01:02:32.794Z,9.63
2023-05-08T01:05:00.253Z,11.63
2023-05-08T01:07:27.889Z,13.80
2023-05-08T01:09:54.632Z,15.18
2023-05-08T01:12:47.971Z,10.85
2023-05-08T01:15:27.200Z,13.10
2023-05-08T01:18:11.360Z,13.68
2023-05-08T01:21:01.096Z,21.15
2023-05-08T01:23:48.825Z,17.23
2023-05-08T01:26:47.790Z,10.57
2023-05-08T01:29:58.918Z,17.33
2023-05-08T01:32:29.857Z,21.55
2023-05-08T01:35:07.895Z,10.80
2023-05-08T01:38:09.568Z,16.00
2023-05-08T01:40:56.707Z,10.73
2023-05-08T01:43:30.772Z,11.50
2023-05-08T01:45:59.403Z,11.52
2023-05-08T01:48:35.154Z,14.45
2023-05-08T01:51:08.361Z,10.02
2023-05-08T01:53:40.822Z,9.73
2023-05-08T01:56:15.545Z,9.15
2023-05-08T01:58:43.026Z,10.52
2023-05-08T02:01:12.506Z,9.77
2023-05-08T02:03:41.710Z,10.05
2023-05-08T02:06:10.193Z,7.50
2023-05-08T02:08:37.641Z,9.50
2023-05-08T02:11:06.625Z,8.48
2023-05-08T02:13:35.825Z,11.32
2023-05-08T02:16:03.244Z,9.85
2023-05-08T02:18:32.065Z,10.73
2023-05-08T02:21:02.199Z,8.68
2023-05-08T02:23:29.912Z,9.00
2023-05-08T02:25:57.333Z,12.82
2023-05-08T02:28:24.932Z,13.13
2023-05-08T02:30:52.530Z,13.23
2023-05-08T02:33:20.628Z,25.20
2023-05-08T02:35:50.539Z,17.48
2023-05-08T02:38:20.702Z,20.80
2023-05-08T02:40:55.489Z,13.25
2023-05-08T02:43:22.436Z,25.90
2023-05-08T02:45:56.271Z,25.48
2023-05-08T02:48:28.868Z,22.90
2023-05-08T02:51:03.075Z,23.58
2023-05-08T02:53:50.491Z,21.85
2023-05-08T02:56:32.363Z,16.80
2023-05-08T02:59:13.276Z,15.60
2023-05-08T03:01:49.489Z,21.08
2023-05-08T03:04:31.932Z,16.27
2023-05-08T03:07:00.111Z,17.05
2023-05-08T03:09:32.034Z,28.40
2023-05-08T03:12:03.717Z,33.30
2023-05-08T03:14:35.112Z,24.40
2023-05-08T03:17:06.325Z,17.08
2023-05-08T03:19:37.593Z,13.45
2023-05-08T03:22:07.847Z,11.68
2023-05-08T03:24:36.757Z,15.55
2023-05-08T03:27:05.929Z,13.50
2023-05-08T03:32:02.292Z,14.45
2023-05-08T03:34:30.329Z,18.65
2023-05-08T03:36:57.132Z,10.85
2023-05-08T03:39:26.209Z,12.50
2023-05-08T03:41:53.111Z,11.30
2023-05-08T03:44:20.144Z,9.50
2023-05-08T03:46:47.880Z,9.05
2023-05-08T03:49:14.867Z,13.45
2023-05-08T03:51:42.902Z,10.27
2023-05-08T03:54:09.369Z,11.57
2023-05-08T03:56:35.984Z,17.88
2023-05-08T03:59:26.823Z,12.02
2023-05-08T04:02:09.121Z,17.65
2023-05-08T04:04:43.989Z,10.27
2023-05-08T04:07:24.803Z,13.35
2023-05-08T04:10:06.280Z,13.20
2023-05-08T04:13:06.920Z,11.38
2023-05-08T04:15:39.288Z,11.15
2023-05-08T04:18:14.769Z,13.00
2023-05-08T04:20:42.938Z,9.38
2023-05-08T04:25:42.626Z,9.70
2023-05-08T04:28:11.138Z,12.85
2023-05-08T04:30:40.152Z,9.80
2023-05-08T04:33:08.064Z,11.18
2023-05-08T04:35:36.022Z,10.20
2023-05-08T04:38:03.013Z,11.23
2023-05-08T04:40:29.560Z,10.82
2023-05-08T04:42:56.484Z,15.35
2023-05-08T04:45:23.372Z,11.73
2023-05-08T04:47:50.021Z,11.80
2023-05-08T04:50:16.784Z,12.98
2023-05-08T04:52:43.199Z,12.60
2023-05-08T04:55:10.629Z,14.48
2023-05-08T04:57:38.759Z,13.10
2023-05-08T05:00:06.360Z,14.77
2023-05-08T05:02:36.822Z,27.33
2023-05-08T05:05:05.170Z,19.80
2023-05-08T05:07:31.750Z,18.27
2023-05-08T05:10:00.039Z,14.65
2023-05-08T05:12:27.093Z,10.40
2023-05-08T05:14:53.767Z,12.45
2023-05-08T05:17:20.565Z,10.95
2023-05-08T05:19:47.182Z,10.23
2023-05-08T05:22:13.733Z,9.50
2023-05-08T05:24:41.445Z,10.98
2023-05-08T05:27:07.904Z,10.40
2023-05-08T05:29:34.758Z,9.75
2023-05-08T05:32:07.080Z,11.13
2023-05-08T05:34:33.706Z,11.38
2023-05-08T05:37:00.235Z,12.57
2023-05-08T05:39:26.851Z,10.13
2023-05-08T05:41:53.476Z,10.73
2023-05-08T05:44:20.045Z,11.65
2023-05-08T05:46:48.493Z,10.55
2023-05-08T05:49:15.153Z,12.50
2023-05-08T05:51:41.703Z,13.32
2023-05-08T05:54:08.535Z,18.20
2023-05-08T05:56:35.078Z,14.90
2023-05-08T05:59:01.801Z,14.43
2023-05-08T06:01:29.121Z,15.05
2023-05-08T06:03:57.583Z,15.85
2023-05-08T06:06:24.945Z,16.92
2023-05-08T06:08:51.391Z,16.98
2023-05-08T06:11:17.845Z,16.92
2023-05-08T06:13:44.507Z,16.25
2023-05-08T06:16:12.139Z,15.95
2023-05-08T06:18:38.614Z,15.10
2023-05-08T06:21:05.281Z,16.42
2023-05-08T06:23:31.802Z,16.33
2023-05-08T06:25:58.535Z,14.00
2023-05-08T06:28:26.006Z,15.07
2023-05-08T06:30:52.814Z,14.38
2023-05-08T06:33:19.480Z,14.88
2023-05-08T06:35:47.687Z,15.38
2023-05-08T06:38:14.726Z,12.85
2023-05-08T06:40:43.116Z,14.25
2023-05-08T06:43:09.905Z,16.90
2023-05-08T06:45:36.461Z,13.60
2023-05-08T06:48:03.092Z,13.82
2023-05-08T06:50:29.710Z,16.33
2023-05-08T06:52:57.814Z,15.98
2023-05-08T06:55:24.279Z,13.43
2023-05-08T06:57:50.854Z,12.57
2023-05-08T07:00:20.521Z,13.80
2023-05-08T07:02:46.987Z,14.10
2023-05-08T07:05:13.697Z,13.82
2023-05-08T07:07:42.552Z,12.85
2023-05-08T07:10:09.457Z,15.60
2023-05-08T07:12:35.938Z,16.55
2023-05-08T07:15:17.793Z,14.43
2023-05-08T07:17:49.311Z,16.40
2023-05-08T07:20:16.702Z,14.40
2023-05-08T07:22:43.168Z,17.05
2023-05-08T07:25:10.133Z,16.95
2023-05-08T07:27:36.798Z,16.40
2023-05-08T07:30:04.267Z,20.27
2023-05-08T07:32:33.838Z,19.67
2023-05-08T07:35:00.436Z,18.40
2023-05-08T07:37:26.882Z,22.52
2023-05-08T07:39:53.495Z,20.15
2023-05-08T07:42:21.194Z,22.65
2023-05-08T07:44:54.329Z,19.52
2023-05-08T07:47:21.641Z,20.70
2023-05-08T07:49:48.144Z,20.73
2023-05-08T07:52:14.636Z,20.98
2023-05-08T07:54:41.041Z,19.08
2023-05-08T07:57:08.939Z,20.85
2023-05-08T07:59:35.438Z,24.02
2023-05-08T08:02:01.930Z,20.92
2023-05-08T08:04:28.512Z,23.02
2023-05-08T08:06:58.005Z,20.13
2023-05-08T08:09:24.576Z,21.35
2023-05-08T08:11:51.268Z,21.45
2023-05-08T08:14:17.871Z,21.80
2023-05-08T08:16:44.514Z,21.60
2023-05-08T08:19:11.064Z,20.95
2023-05-08T08:21:43.547Z,24.83
2023-05-08T08:24:10.410Z,21.52
2023-05-08T08:26:36.963Z,22.30
2023-05-08T08:29:03.870Z,22.83
2023-05-08T08:31:30.438Z,25.23
2023-05-08T08:33:57.448Z,21.10
2023-05-08T08:36:23.939Z,20.73
2023-05-08T08:38:50.440Z,19.88
2023-05-08T08:41:16.958Z,21.05
2023-05-08T08:43:43.542Z,20.35
2023-05-08T08:46:14.652Z,19.77
2023-05-08T08:48:45.520Z,19.40
2023-05-08T08:51:25.735Z,19.98
2023-05-08T08:56:27.561Z,20.65
2023-05-08T08:58:57.123Z,19.95
2023-05-08T09:01:24.760Z,18.45
2023-05-08T09:03:52.710Z,20.52
2023-05-08T09:06:19.807Z,20.73
2023-05-08T09:08:47.308Z,21.58
2023-05-08T09:11:13.847Z,19.08
2023-05-08T09:13:41.209Z,18.52
2023-05-08T09:16:07.769Z,23.55
2023-05-08T09:18:34.241Z,18.67
2023-05-08T09:21:01.788Z,20.13
2023-05-08T09:23:28.621Z,19.27
2023-05-08T09:25:55.113Z,19.02
2023-05-08T09:28:24.014Z,17.98
2023-05-08T09:30:58.794Z,16.73
2023-05-08T09:33:29.604Z,18.80
2023-05-08T09:35:56.787Z,17.70
2023-05-08T09:38:43.527Z,17.70
2023-05-08T09:41:15.276Z,15.65
2023-05-08T09:43:44.003Z,14.50
2023-05-08T09:46:21.089Z,15.27
2023-05-08T09:48:48.380Z,17.50
2023-05-08T09:51:14.912Z,17.60
2023-05-08T09:53:41.429Z,15.30
2023-05-08T09:56:07.967Z,15.05
2023-05-08T09:58:39.521Z,13.75
2023-05-08T10:01:07.431Z,17.27
2023-05-08T10:03:48.032Z,18.40
2023-05-08T10:06:15.270Z,17.92
2023-05-08T10:08:41.978Z,20.73
2023-05-08T10:11:19.322Z,19.25
2023-05-08T10:13:46.708Z,18.33
2023-05-08T10:16:18.448Z,22.55
2023-05-08T10:18:49.685Z,22.08
2023-05-08T10:21:17.734Z,21.90
2023-05-08T10:23:49.512Z,22.13
2023-05-08T10:26:27.335Z,24.48
2023-05-08T10:28:57.896Z,24.60
2023-05-08T10:31:26.864Z,26.27
2023-05-08T10:33:56.663Z,31.13
2023-05-08T10:36:23.883Z,34.75
2023-05-08T10:38:51.698Z,36.95
2023-05-08T10:41:20.004Z,32.80
2023-05-08T10:46:29.244Z,39.60
2023-05-08T10:49:14.829Z,37.72
2023-05-08T10:51:53.536Z,41.58
2023-05-08T10:54:32.426Z,41.88
2023-05-08T10:57:11.729Z,42.22
2023-05-08T10:59:38.682Z,39.95
2023-05-08T11:02:07.226Z,40.13
2023-05-08T11:04:38.364Z,38.55
2023-05-08T11:07:05.394Z,37.55
2023-05-08T11:09:40.859Z,37.03
2023-05-08T11:12:16.546Z,41.83
2023-05-08T11:14:53.280Z,40.22
2023-05-08T11:17:24.437Z,42.08
2023-05-08T11:20:01.690Z,46.05
2023-05-08T11:22:30.578Z,44.22
2023-05-08T11:25:10.753Z,45.03
2023-05-08T11:27:49.800Z,42.58
2023-05-08T11:30:25.673Z,47.22
2023-05-08T11:33:07.079Z,46.05
2023-05-08T11:35:42.699Z,49.47
2023-05-08T11:38:20.404Z,49.58
2023-05-08T11:40:57.548Z,47.05
2023-05-08T11:43:34.314Z,48.63
2023-05-08T11:46:04.753Z,48.60
2023-05-08T11:48:32.819Z,51.13
2023-05-08T11:51:00.077Z,48.78
2023-05-08T11:53:27.289Z,51.42
2023-05-08T11:55:54.162Z,47.85
2023-05-08T11:58:23.538Z,45.97
2023-05-08T12:01:25.249Z,43.70
2023-05-08T12:04:11.508Z,43.60
2023-05-08T12:06:41.332Z,47.65
2023-05-08T12:09:13.086Z,44.40
2023-05-08T12:11:43.750Z,46.65
2023-05-08T12:14:11.961Z,48.92
2023-05-08T12:16:40.272Z,44.05
2023-05-08T12:19:13.083Z,46.53
2023-05-08T12:21:49.908Z,48.42
2023-05-08T12:24:23.729Z,45.13
2023-05-08T12:26:58.631Z,46.70
2023-05-08T12:29:26.698Z,41.10
2023-05-08T12:31:53.575Z,41.30
2023-05-08T12:34:20.731Z,40.47
2023-05-08T12:36:47.346Z,37.72
2023-05-08T12:39:16.114Z,39.95
2023-05-08T12:41:47.429Z,40.10
2023-05-08T12:44:24.273Z,33.70
2023-05-08T12:46:56.273Z,39.65
2023-05-08T12:49:31.257Z,36.70
2023-05-08T12:52:08.148Z,37.03
2023-05-08T12:54:41.169Z,31.02
2023-05-08T12:57:18.326Z,34.70
2023-05-08T12:59:46.162Z,34.05
2023-05-08T13:02:23.749Z,30.20
2023-05-08T13:04:55.940Z,32.55
2023-05-08T13:07:23.462Z,29.98
2023-05-08T13:10:03.604Z,30.70
2023-05-08T13:12:31.552Z,29.77
2023-05-08T13:14:58.029Z,28.73
2023-05-08T13:17:24.450Z,27.48
2023-05-08T13:19:50.934Z,30.45
2023-05-08T13:22:17.439Z,30.63
2023-05-08T13:24:43.940Z,31.65
2023-05-08T13:27:10.487Z,30.95
2023-05-08T13:29:37.058Z,28.65
2023-05-08T13:32:07.327Z,30.65
2023-05-08T13:34:34.841Z,29.60
2023-05-08T13:37:01.478Z,30.13
2023-05-08T13:39:32.703Z,27.63
2023-05-08T13:41:59.318Z,32.47
2023-05-08T13:44:25.852Z,32.70
2023-05-08T13:46:52.449Z,29.75
2023-05-08T13:49:19.844Z,30.90
2023-05-08T13:51:49.226Z,29.92
2023-05-08T13:54:20.863Z,30.42
2023-05-08T13:56:48.556Z,29.38
2023-05-08T13:59:15.275Z,26.48
2023-05-08T14:01:41.993Z,31.00
2023-05-08T14:04:08.687Z,28.20
2023-05-08T14:06:35.546Z,30.23
2023-05-08T14:09:02.320Z,29.30
2023-05-08T14:11:29.558Z,30.63
2023-05-08T14:13:56.215Z,31.65
2023-05-08T14:16:22.990Z,32.15
2023-05-08T14:18:49.573Z,31.48
2023-05-08T14:21:16.203Z,31.83
2023-05-08T14:23:43.876Z,30.92
2023-05-08T14:26:10.849Z,27.25
2023-05-08T14:28:40.668Z,27.80
2023-05-08T14:31:09.573Z,29.05
2023-05-08T14:33:36.196Z,29.23
2023-05-08T14:36:02.903Z,28.70
2023-05-08T14:38:29.641Z,29.92
2023-05-08T14:40:56.572Z,25.83
2023-05-08T14:43:23.496Z,26.88
2023-05-08T14:45:52.730Z,30.20
2023-05-08T14:48:19.266Z,30.13
2023-05-08T14:50:45.738Z,26.67
2023-05-08T14:53:12.234Z,31.38
2023-05-08T14:55:39.226Z,27.38
2023-05-08T14:58:06.265Z,29.83
2023-05-08T15:00:32.934Z,27.58
2023-05-08T15:02:59.757Z,27.00
2023-05-08T15:05:26.911Z,31.13
2023-05-08T15:07:54.143Z,25.70
2023-05-08T15:10:20.868Z,25.95
2023-05-08T15:12:47.504Z,27.25
2023-05-08T15:15:14.518Z,25.60
2023-05-08T15:17:41.609Z,26.15
2023-05-08T15:20:09.638Z,24.60
2023-05-08T15:22:36.959Z,26.92
2023-05-08T15:25:03.985Z,28.33
2023-05-08T15:27:52.790Z,31.25
2023-05-08T15:30:20.254Z,29.05
2023-05-08T15:32:46.977Z,34.45
2023-05-08T15:35:21.361Z,30.33
2023-05-08T15:37:47.825Z,28.90
2023-05-08T15:40:14.396Z,27.30
2023-05-08T15:42:40.959Z,26.52
2023-05-08T15:45:08.108Z,27.75
2023-05-08T15:47:34.854Z,31.52
2023-05-08T15:50:01.472Z,26.13
2023-05-08T15:52:30.233Z,28.33
2023-05-08T15:54:56.681Z,28.40
2023-05-08T15:57:23.094Z,25.52
2023-05-08T15:59:49.569Z,26.35
2023-05-08T16:02:16.001Z,26.70
2023-05-08T16:04:42.552Z,29.55
2023-05-08T16:07:09.049Z,26.85
2023-05-08T16:09:35.498Z,26.20
2023-05-08T16:12:01.996Z,29.48
2023-05-08T16:14:28.436Z,30.17
2023-05-08T16:16:54.846Z,29.27
2023-05-08T16:19:21.267Z,31.13
2023-05-08T16:21:47.840Z,30.88
2023-05-08T16:24:14.685Z,30.80
2023-05-08T16:26:41.128Z,32.25
2023-05-08T16:29:07.618Z,30.35
2023-05-08T16:31:34.134Z,31.42
2023-05-08T16:34:00.678Z,30.55
2023-05-08T16:36:27.566Z,32.67
2023-05-08T16:38:54.108Z,35.97
2023-05-08T16:41:21.163Z,37.28
2023-05-08T16:43:47.604Z,38.72
2023-05-08T16:46:14.273Z,36.85
2023-05-08T16:48:42.226Z,41.53
2023-05-08T16:51:08.787Z,42.45
2023-05-08T16:53:35.337Z,46.83
2023-05-08T16:56:01.868Z,43.15
2023-05-08T16:58:28.493Z,48.03
2023-05-08T17:00:55.071Z,50.05
2023-05-08T17:03:22.807Z,53.35
2023-05-08T17:05:53.942Z,57.65
2023-05-08T17:08:20.451Z,60.95
2023-05-08T17:10:47.002Z,66.40
2023-05-08T17:13:23.760Z,56.05
2023-05-08T17:15:50.591Z,67.22
2023-05-08T17:18:17.224Z,65.47
2023-05-08T17:20:45.070Z,64.57
2023-05-08T17:25:38.937Z,66.05
2023-05-08T17:28:05.577Z,68.93
2023-05-08T17:30:36.976Z,68.88
2023-05-08T17:33:07.171Z,67.25
2023-05-08T17:35:34.244Z,74.85
2023-05-08T17:38:00.986Z,67.65
2023-05-08T17:40:28.875Z,70.38
2023-05-08T17:42:55.770Z,65.53
2023-05-08T17:45:22.350Z,63.20
2023-05-08T17:47:49.025Z,67.03
2023-05-08T17:50:15.808Z,68.07
2023-05-08T17:52:42.500Z,71.93
2023-05-08T17:55:09.741Z,66.25
2023-05-08T17:57:36.465Z,66.85
2023-05-08T18:00:04.417Z,68.32
2023-05-08T18:02:35.103Z,64.93
2023-05-08T18:05:02.014Z,66.85
2023-05-08T18:07:28.543Z,67.10
2023-05-08T18:09:55.028Z,62.03
2023-05-08T18:12:21.712Z,61.55
2023-05-08T18:14:48.645Z,60.20
2023-05-08T18:17:24.173Z,58.53
2023-05-08T18:19:50.885Z,59.55
2023-05-08T18:22:17.613Z,59.78
2023-05-08T18:24:45.687Z,59.08
2023-05-08T18:27:12.251Z,57.10
2023-05-08T18:29:38.898Z,58.40
2023-05-08T18:32:30.291Z,60.55
2023-05-08T18:34:57.200Z,55.03
2023-05-08T18:37:26.688Z,59.58
2023-05-08T18:39:55.663Z,55.50
2023-05-08T18:42:25.604Z,55.88
2023-05-08T18:44:52.286Z,52.13
2023-05-08T18:47:21.131Z,51.70
2023-05-08T18:49:57.862Z,54.58
2023-05-08T18:52:24.845Z,53.58
2023-05-08T18:54:52.690Z,52.75
2023-05-08T18:57:19.266Z,49.95
2023-05-08T19:02:39.059Z,47.95
2023-05-08T19:05:06.153Z,47.05
2023-05-08T19:07:36.516Z,48.45
2023-05-08T19:10:04.256Z,49.88
2023-05-08T19:12:34.034Z,48.63
2023-05-08T19:15:00.509Z,45.95
2023-05-08T19:17:31.264Z,45.42
2023-05-08T19:22:26.924Z,45.80
2023-05-08T19:24:58.682Z,47.45
2023-05-08T19:27:25.798Z,41.83
2023-05-08T19:29:52.370Z,43.53
2023-05-08T19:32:31.463Z,41.75
2023-05-08T19:34:57.895Z,42.65
2023-05-08T19:37:24.751Z,38.60
2023-05-08T19:39:51.307Z,41.70
2023-05-08T19:42:17.955Z,42.22
2023-05-08T19:44:44.445Z,39.95
2023-05-08T19:47:11.059Z,44.40
2023-05-08T19:49:37.523Z,43.03
2023-05-08T19:52:04.076Z,41.13
2023-05-08T19:54:30.874Z,43.40
2023-05-08T19:56:57.642Z,41.92
2023-05-08T19:59:24.148Z,40.55
2023-05-08T20:01:50.837Z,44.60
2023-05-08T20:04:17.556Z,42.80
2023-05-08T20:06:43.986Z,47.55
2023-05-08T20:09:10.475Z,38.08
2023-05-08T20:11:36.951Z,41.15
2023-05-08T20:14:03.506Z,40.95
2023-05-08T20:16:30.067Z,38.95
2023-05-08T20:18:56.635Z,43.42
2023-05-08T20:21:23.162Z,47.97
2023-05-08T20:23:49.577Z,51.35
2023-05-08T20:26:16.048Z,43.60
2023-05-08T20:28:42.441Z,41.90
2023-05-08T20:31:09.082Z,48.22
2023-05-08T20:33:35.517Z,44.25
2023-05-08T20:36:02.062Z,43.58
2023-05-08T20:38:28.551Z,49.03
2023-05-08T20:40:59.312Z,45.72
2023-05-08T20:43:27.503Z,54.03
2023-05-08T20:45:54.062Z,50.55
2023-05-08T20:48:20.498Z,49.55
2023-05-08T20:50:49.911Z,55.00
2023-05-08T20:53:16.312Z,50.42
2023-05-08T20:55:42.768Z,48.42
2023-05-08T20:58:09.274Z,48.20
2023-05-08T21:00:36.125Z,45.13
2023-05-08T21:03:03.163Z,41.35
2023-05-08T21:05:29.779Z,40.70
2023-05-08T21:07:59.908Z,39.22
2023-05-08T21:10:28.681Z,41.25
2023-05-08T21:15:21.721Z,38.55
2023-05-08T21:17:48.400Z,37.00
2023-05-08T21:20:15.406Z,39.50
2023-05-08T21:22:42.239Z,38.33
2023-05-08T21:25:17.544Z,36.63
2023-05-08T21:27:44.212Z,35.38
2023-05-08T21:30:15.214Z,36.70
2023-05-08T21:32:46.731Z,38.20
2023-05-08T21:35:13.614Z,33.88
2023-05-08T21:37:43.264Z,36.25
2023-05-08T21:40:10.250Z,36.72
2023-05-08T21:42:36.638Z,37.50
2023-05-08T21:45:03.263Z,36.65
2023-05-08T21:47:29.837Z,35.72
2023-05-08T21:49:57.183Z,33.38
2023-05-08T21:52:25.523Z,33.45
2023-05-08T21:54:52.796Z,38.05
2023-05-08T21:57:19.311Z,31.05
2023-05-08T21:59:45.791Z,37.17
2023-05-08T22:02:12.860Z,35.03
2023-05-08T22:04:39.389Z,36.83
2023-05-08T22:07:05.910Z,38.17
2023-05-08T22:09:32.426Z,35.13
2023-05-08T22:11:58.907Z,41.95
2023-05-08T22:14:25.436Z,37.40
2023-05-08T22:16:52.585Z,37.80
2023-05-08T22:19:19.149Z,35.47
2023-05-08T22:21:45.635Z,34.90
2023-05-08T22:24:12.129Z,37.45
2023-05-08T22:26:38.596Z,37.80
2023-05-08T22:29:05.065Z,40.72
2023-05-08T22:31:31.644Z,39.38
2023-05-08T22:33:58.452Z,37.75
2023-05-08T22:36:24.953Z,40.10
2023-05-08T22:38:51.709Z,36.55
2023-05-08T22:41:18.239Z,40.17
2023-05-08T22:43:44.805Z,33.22
2023-05-08T22:46:11.888Z,34.22
2023-05-08T22:48:38.665Z,36.63
2023-05-08T22:51:05.289Z,37.90
2023-05-08T22:53:31.785Z,36.95
2023-05-08T22:55:58.189Z,42.85
2023-05-08T22:58:25.249Z,40.08
2023-05-08T23:00:51.945Z,43.25
2023-05-08T23:03:18.615Z,40.47
2023-05-08T23:05:45.048Z,38.53
2023-05-08T23:08:11.492Z,38.80
2023-05-08T23:10:37.957Z,43.42
2023-05-08T23:13:04.507Z,41.15
2023-05-08T23:15:30.975Z,39.60
2023-05-08T23:17:57.512Z,41.70
2023-05-08T23:20:24.117Z,43.47
2023-05-08T23:22:50.530Z,41.83
2023-05-08T23:25:17.216Z,42.17
2023-05-08T23:27:43.860Z,46.45
2023-05-08T23:30:13.134Z,43.28
2023-05-08T23:32:39.973Z,39.75
2023-05-08T23:35:07.094Z,40.47
2023-05-08T23:37:33.661Z,43.03
2023-05-08T23:40:00.166Z,43.05
2023-05-08T23:42:27.207Z,39.75
2023-05-08T23:44:53.798Z,41.15
2023-05-08T23:47:22.372Z,43.45
2023-05-08T23:49:49.010Z,39.40
2023-05-08T23:52:15.486Z,46.55
2023-05-08T23:54:42.188Z,41.92
2023-05-08T23:57:08.714Z,46.05
2023-05-08T23:59:35.320Z,39.40
